sensor_id;sensor_type;location;lat;lon;timestamp;P1;durP1;ratioP1;P2;durP2;ratioP2
15451;SDS011;7827;53.594;9.938;2023-02-28T00:01:33;4.60;;;2.60;;
15451;SDS011;7827;53.594;9.938;2023-02-28T00:04:02;5.40;;;2.60;;
15451;SDS011;7827;53.594;9.938;2023-02-28T00:06:30;7.17;;;2.90;;
15451;SDS011;7827;53.594;9.938;2023-02-28T00:08:58;3.90;;;2.50;;
15451;SDS011;7827;53.594;9.938;2023-02-28T00:11:27;6.70;;;3.03;;
15451;SDS011;7827;53.594;9.938;2023-02-28T00:13:57;8.47;;;3.07;;
15451;SDS011;7827;53.594;9.938;2023-02-28T00:16:26;8.13;;;2.93;;
15451;SDS011;7827;53.594;9.938;2023-02-28T00:18:54;6.87;;;2.70;;
15451;SDS011;7827;53.594;9.938;2023-02-28T00:21:23;7.23;;;2.77;;
15451;SDS011;7827;53.594;9.938;2023-02-28T00:23:51;4.40;;;2.53;;
15451;SDS011;7827;53.594;9.938;2023-02-28T00:26:19;5.03;;;2.37;;
15451;SDS011;7827;53.594;9.938;2023-02-28T00:28:48;6.63;;;2.50;;
15451;SDS011;7827;53.594;9.938;2023-02-28T00:31:20;2.90;;;2.20;;
15451;SDS011;7827;53.594;9.938;2023-02-28T00:33:48;6.67;;;3.20;;
15451;SDS011;7827;53.594;9.938;2023-02-28T00:36:19;8.87;;;2.60;;
15451;SDS011;7827;53.594;9.938;2023-02-28T00:38:48;5.30;;;2.50;;
15451;SDS011;7827;53.594;9.938;2023-02-28T00:41:16;3.43;;;2.30;;
15451;SDS011;7827;53.594;9.938;2023-02-28T00:43:46;5.70;;;2.80;;
15451;SDS011;7827;53.594;9.938;2023-02-28T00:46:14;5.77;;;2.30;;
15451;SDS011;7827;53.594;9.938;2023-02-28T00:48:44;6.00;;;2.67;;
15451;SDS011;7827;53.594;9.938;2023-02-28T00:51:13;5.57;;;2.60;;
15451;SDS011;7827;53.594;9.938;2023-02-28T00:53:42;4.53;;;2.40;;
15451;SDS011;7827;53.594;9.938;2023-02-28T00:56:10;6.80;;;2.93;;
15451;SDS011;7827;53.594;9.938;2023-02-28T00:58:38;3.40;;;2.20;;
15451;SDS011;7827;53.594;9.938;2023-02-28T01:01:07;4.70;;;2.50;;
15451;SDS011;7827;53.594;9.938;2023-02-28T01:03:37;6.43;;;3.00;;
15451;SDS011;7827;53.594;9.938;2023-02-28T01:06:07;6.23;;;2.83;;
15451;SDS011;7827;53.594;9.938;2023-02-28T01:08:37;3.90;;;2.50;;
15451;SDS011;7827;53.594;9.938;2023-02-28T01:11:09;5.23;;;2.50;;
15451;SDS011;7827;53.594;9.938;2023-02-28T01:13:39;8.20;;;3.23;;
15451;SDS011;7827;53.594;9.938;2023-02-28T01:16:11;6.70;;;3.30;;
15451;SDS011;7827;53.594;9.938;2023-02-28T01:18:40;5.43;;;2.67;;
15451;SDS011;7827;53.594;9.938;2023-02-28T01:21:11;4.97;;;2.70;;
15451;SDS011;7827;53.594;9.938;2023-02-28T01:23:43;5.83;;;2.87;;
15451;SDS011;7827;53.594;9.938;2023-02-28T01:26:17;4.93;;;2.80;;
15451;SDS011;7827;53.594;9.938;2023-02-28T01:28:48;6.83;;;2.70;;
15451;SDS011;7827;53.594;9.938;2023-02-28T01:31:18;4.43;;;2.87;;
15451;SDS011;7827;53.594;9.938;2023-02-28T01:33:48;8.47;;;2.97;;
15451;SDS011;7827;53.594;9.938;2023-02-28T01:36:19;8.27;;;2.90;;
15451;SDS011;7827;53.594;9.938;2023-02-28T01:38:50;6.37;;;3.17;;
15451;SDS011;7827;53.594;9.938;2023-02-28T01:41:22;6.90;;;3.10;;
15451;SDS011;7827;53.594;9.938;2023-02-28T01:43:55;7.07;;;2.80;;
15451;SDS011;7827;53.594;9.938;2023-02-28T01:46:32;6.47;;;2.60;;
15451;SDS011;7827;53.594;9.938;2023-02-28T01:49:05;5.13;;;2.83;;
15451;SDS011;7827;53.594;9.938;2023-02-28T01:51:41;6.70;;;3.10;;
15451;SDS011;7827;53.594;9.938;2023-02-28T01:54:18;6.83;;;2.90;;
15451;SDS011;7827;53.594;9.938;2023-02-28T01:56:51;5.67;;;2.93;;
15451;SDS011;7827;53.594;9.938;2023-02-28T01:59:27;6.00;;;2.83;;
15451;SDS011;7827;53.594;9.938;2023-02-28T02:02:02;5.53;;;2.97;;
15451;SDS011;7827;53.594;9.938;2023-02-28T02:04:32;5.10;;;3.07;;
15451;SDS011;7827;53.594;9.938;2023-02-28T02:07:07;6.53;;;3.03;;
15451;SDS011;7827;53.594;9.938;2023-02-28T02:09:37;7.17;;;2.73;;
15451;SDS011;7827;53.594;9.938;2023-02-28T02:12:07;6.43;;;3.13;;
15451;SDS011;7827;53.594;9.938;2023-02-28T02:14:53;8.30;;;3.00;;
15451;SDS011;7827;53.594;9.938;2023-02-28T02:17:32;5.27;;;3.00;;
15451;SDS011;7827;53.594;9.938;2023-02-28T02:20:16;3.83;;;2.73;;
15451;SDS011;7827;53.594;9.938;2023-02-28T02:33:21;3.97;;;2.43;;
15451;SDS011;7827;53.594;9.938;2023-02-28T02:36:43;6.10;;;3.00;;
15451;SDS011;7827;53.594;9.938;2023-02-28T02:39:19;5.47;;;3.20;;
15451;SDS011;7827;53.594;9.938;2023-02-28T02:41:59;6.17;;;2.83;;
15451;SDS011;7827;53.594;9.938;2023-02-28T02:44:39;7.07;;;3.67;;
15451;SDS011;7827;53.594;9.938;2023-02-28T02:47:16;7.07;;;3.73;;
15451;SDS011;7827;53.594;9.938;2023-02-28T02:49:50;6.03;;;3.83;;
15451;SDS011;7827;53.594;9.938;2023-02-28T02:52:27;7.57;;;3.57;;
15451;SDS011;7827;53.594;9.938;2023-02-28T02:55:05;13.67;;;6.57;;
15451;SDS011;7827;53.594;9.938;2023-02-28T02:57:40;13.67;;;6.60;;
15451;SDS011;7827;53.594;9.938;2023-02-28T03:00:16;12.17;;;5.77;;
15451;SDS011;7827;53.594;9.938;2023-02-28T03:02:49;16.30;;;8.23;;
15451;SDS011;7827;53.594;9.938;2023-02-28T03:05:21;16.47;;;8.33;;
15451;SDS011;7827;53.594;9.938;2023-02-28T03:07:55;12.27;;;7.13;;
15451;SDS011;7827;53.594;9.938;2023-02-28T03:10:29;14.00;;;7.77;;
15451;SDS011;7827;53.594;9.938;2023-02-28T03:13:10;15.03;;;8.23;;
15451;SDS011;7827;53.594;9.938;2023-02-28T03:15:58;28.17;;;13.20;;
15451;SDS011;7827;53.594;9.938;2023-02-28T03:18:52;28.30;;;12.47;;
15451;SDS011;7827;53.594;9.938;2023-02-28T03:21:33;36.97;;;19.50;;
15451;SDS011;7827;53.594;9.938;2023-02-28T03:24:11;52.83;;;24.67;;
15451;SDS011;7827;53.594;9.938;2023-02-28T03:26:50;42.30;;;22.17;;
15451;SDS011;7827;53.594;9.938;2023-02-28T03:29:28;61.20;;;27.47;;
15451;SDS011;7827;53.594;9.938;2023-02-28T03:32:03;54.00;;;27.13;;
15451;SDS011;7827;53.594;9.938;2023-02-28T03:34:41;75.00;;;32.97;;
15451;SDS011;7827;53.594;9.938;2023-02-28T03:37:18;73.00;;;35.27;;
15451;SDS011;7827;53.594;9.938;2023-02-28T03:39:53;84.30;;;37.83;;
15451;SDS011;7827;53.594;9.938;2023-02-28T03:42:27;82.50;;;37.00;;
15451;SDS011;7827;53.594;9.938;2023-02-28T03:45:00;80.17;;;38.50;;
15451;SDS011;7827;53.594;9.938;2023-02-28T03:47:37;87.63;;;39.57;;
15451;SDS011;7827;53.594;9.938;2023-02-28T03:50:13;81.30;;;36.17;;
15451;SDS011;7827;53.594;9.938;2023-02-28T03:52:49;85.80;;;37.27;;
15451;SDS011;7827;53.594;9.938;2023-02-28T03:55:28;109.00;;;47.53;;
15451;SDS011;7827;53.594;9.938;2023-02-28T03:58:01;109.23;;;46.97;;
15451;SDS011;7827;53.594;9.938;2023-02-28T04:00:40;101.67;;;45.23;;
15451;SDS011;7827;53.594;9.938;2023-02-28T04:03:15;92.70;;;41.53;;
15451;SDS011;7827;53.594;9.938;2023-02-28T04:05:46;94.73;;;41.33;;
15451;SDS011;7827;53.594;9.938;2023-02-28T04:08:19;98.23;;;42.83;;
15451;SDS011;7827;53.594;9.938;2023-02-28T04:10:52;93.73;;;43.37;;
15451;SDS011;7827;53.594;9.938;2023-02-28T04:13:26;94.53;;;42.90;;
15451;SDS011;7827;53.594;9.938;2023-02-28T04:15:54;94.80;;;42.50;;
15451;SDS011;7827;53.594;9.938;2023-02-28T04:18:23;92.23;;;41.30;;
15451;SDS011;7827;53.594;9.938;2023-02-28T04:20:51;106.30;;;43.73;;
15451;SDS011;7827;53.594;9.938;2023-02-28T04:23:19;107.50;;;45.70;;
15451;SDS011;7827;53.594;9.938;2023-02-28T04:25:47;101.67;;;44.20;;
15451;SDS011;7827;53.594;9.938;2023-02-28T04:28:18;97.73;;;43.20;;
15451;SDS011;7827;53.594;9.938;2023-02-28T04:30:47;99.80;;;41.07;;
15451;SDS011;7827;53.594;9.938;2023-02-28T04:33:15;98.37;;;43.23;;
15451;SDS011;7827;53.594;9.938;2023-02-28T04:35:43;99.30;;;41.73;;
15451;SDS011;7827;53.594;9.938;2023-02-28T04:38:12;96.27;;;41.43;;
15451;SDS011;7827;53.594;9.938;2023-02-28T04:40:40;89.33;;;40.50;;
15451;SDS011;7827;53.594;9.938;2023-02-28T04:43:08;90.63;;;39.90;;
15451;SDS011;7827;53.594;9.938;2023-02-28T04:45:38;92.30;;;41.03;;
15451;SDS011;7827;53.594;9.938;2023-02-28T04:48:06;88.90;;;40.17;;
15451;SDS011;7827;53.594;9.938;2023-02-28T04:50:34;95.83;;;42.27;;
15451;SDS011;7827;53.594;9.938;2023-02-28T04:53:02;90.93;;;39.30;;
15451;SDS011;7827;53.594;9.938;2023-02-28T04:55:31;95.83;;;39.90;;
15451;SDS011;7827;53.594;9.938;2023-02-28T04:57:59;86.97;;;38.30;;
15451;SDS011;7827;53.594;9.938;2023-02-28T05:00:28;78.47;;;35.77;;
15451;SDS011;7827;53.594;9.938;2023-02-28T05:02:58;84.03;;;37.03;;
15451;SDS011;7827;53.594;9.938;2023-02-28T05:05:26;90.93;;;38.73;;
15451;SDS011;7827;53.594;9.938;2023-02-28T05:07:54;83.57;;;38.47;;
15451;SDS011;7827;53.594;9.938;2023-02-28T05:10:23;86.30;;;36.47;;
15451;SDS011;7827;53.594;9.938;2023-02-28T05:12:51;77.97;;;33.70;;
15451;SDS011;7827;53.594;9.938;2023-02-28T05:15:20;88.40;;;36.27;;
15451;SDS011;7827;53.594;9.938;2023-02-28T05:17:48;84.70;;;35.67;;
15451;SDS011;7827;53.594;9.938;2023-02-28T05:20:18;78.07;;;34.90;;
15451;SDS011;7827;53.594;9.938;2023-02-28T05:22:47;78.23;;;34.23;;
15451;SDS011;7827;53.594;9.938;2023-02-28T05:25:18;87.70;;;35.80;;
15451;SDS011;7827;53.594;9.938;2023-02-28T05:27:49;76.70;;;33.33;;
15451;SDS011;7827;53.594;9.938;2023-02-28T05:30:17;76.43;;;33.20;;
15451;SDS011;7827;53.594;9.938;2023-02-28T05:32:49;81.93;;;34.93;;
15451;SDS011;7827;53.594;9.938;2023-02-28T05:35:20;84.70;;;33.90;;
15451;SDS011;7827;53.594;9.938;2023-02-28T05:37:48;67.23;;;29.73;;
15451;SDS011;7827;53.594;9.938;2023-02-28T05:40:17;71.87;;;29.93;;
15451;SDS011;7827;53.594;9.938;2023-02-28T05:42:46;61.77;;;29.53;;
15451;SDS011;7827;53.594;9.938;2023-02-28T05:45:17;65.97;;;30.30;;
15451;SDS011;7827;53.594;9.938;2023-02-28T05:47:45;60.17;;;28.40;;
15451;SDS011;7827;53.594;9.938;2023-02-28T05:50:13;51.30;;;24.77;;
15451;SDS011;7827;53.594;9.938;2023-02-28T05:52:44;61.63;;;26.43;;
15451;SDS011;7827;53.594;9.938;2023-02-28T05:55:16;61.13;;;27.97;;
15451;SDS011;7827;53.594;9.938;2023-02-28T05:57:45;59.23;;;26.17;;
15451;SDS011;7827;53.594;9.938;2023-02-28T06:00:13;53.77;;;24.00;;
15451;SDS011;7827;53.594;9.938;2023-02-28T06:02:44;56.57;;;24.90;;
15451;SDS011;7827;53.594;9.938;2023-02-28T06:05:13;53.60;;;23.90;;
15451;SDS011;7827;53.594;9.938;2023-02-28T06:07:44;53.87;;;22.40;;
15451;SDS011;7827;53.594;9.938;2023-02-28T06:10:12;46.67;;;23.20;;
15451;SDS011;7827;53.594;9.938;2023-02-28T06:12:41;43.57;;;21.97;;
15451;SDS011;7827;53.594;9.938;2023-02-28T06:15:11;45.13;;;20.67;;
15451;SDS011;7827;53.594;9.938;2023-02-28T06:17:41;44.17;;;19.53;;
15451;SDS011;7827;53.594;9.938;2023-02-28T06:20:10;47.33;;;20.13;;
15451;SDS011;7827;53.594;9.938;2023-02-28T06:22:40;38.87;;;18.13;;
15451;SDS011;7827;53.594;9.938;2023-02-28T06:25:10;38.23;;;19.37;;
15451;SDS011;7827;53.594;9.938;2023-02-28T06:27:39;41.70;;;19.00;;
15451;SDS011;7827;53.594;9.938;2023-02-28T06:30:07;46.07;;;19.43;;
15451;SDS011;7827;53.594;9.938;2023-02-28T06:32:37;45.00;;;19.87;;
15451;SDS011;7827;53.594;9.938;2023-02-28T06:35:06;39.03;;;18.57;;
15451;SDS011;7827;53.594;9.938;2023-02-28T06:37:35;38.57;;;18.53;;
15451;SDS011;7827;53.594;9.938;2023-02-28T06:40:07;38.43;;;18.27;;
15451;SDS011;7827;53.594;9.938;2023-02-28T06:42:40;30.93;;;15.23;;
15451;SDS011;7827;53.594;9.938;2023-02-28T06:45:10;26.80;;;14.27;;
15451;SDS011;7827;53.594;9.938;2023-02-28T06:47:39;26.30;;;13.73;;
15451;SDS011;7827;53.594;9.938;2023-02-28T06:50:10;28.20;;;13.43;;
15451;SDS011;7827;53.594;9.938;2023-02-28T06:52:40;24.17;;;12.83;;
15451;SDS011;7827;53.594;9.938;2023-02-28T06:55:08;29.43;;;13.83;;
15451;SDS011;7827;53.594;9.938;2023-02-28T06:57:39;24.53;;;12.20;;
15451;SDS011;7827;53.594;9.938;2023-02-28T07:00:08;21.50;;;10.80;;
15451;SDS011;7827;53.594;9.938;2023-02-28T07:02:38;25.10;;;11.77;;
15451;SDS011;7827;53.594;9.938;2023-02-28T07:05:07;23.93;;;11.80;;
15451;SDS011;7827;53.594;9.938;2023-02-28T07:07:35;25.80;;;12.97;;
15451;SDS011;7827;53.594;9.938;2023-02-28T07:10:07;28.37;;;12.73;;
15451;SDS011;7827;53.594;9.938;2023-02-28T07:12:39;20.40;;;11.83;;
15451;SDS011;7827;53.594;9.938;2023-02-28T07:15:08;30.37;;;12.40;;
15451;SDS011;7827;53.594;9.938;2023-02-28T07:17:46;22.97;;;11.60;;
15451;SDS011;7827;53.594;9.938;2023-02-28T07:20:31;24.43;;;11.20;;
15451;SDS011;7827;53.594;9.938;2023-02-28T07:22:59;20.00;;;11.27;;
15451;SDS011;7827;53.594;9.938;2023-02-28T07:25:29;19.87;;;11.00;;
15451;SDS011;7827;53.594;9.938;2023-02-28T07:27:57;19.50;;;10.37;;
15451;SDS011;7827;53.594;9.938;2023-02-28T07:30:26;18.50;;;9.27;;
15451;SDS011;7827;53.594;9.938;2023-02-28T07:32:55;19.30;;;9.17;;
15451;SDS011;7827;53.594;9.938;2023-02-28T07:35:23;18.67;;;10.13;;
15451;SDS011;7827;53.594;9.938;2023-02-28T07:37:51;19.30;;;10.20;;
15451;SDS011;7827;53.594;9.938;2023-02-28T07:40:19;20.37;;;9.93;;
15451;SDS011;7827;53.594;9.938;2023-02-28T07:42:49;22.43;;;9.47;;
15451;SDS011;7827;53.594;9.938;2023-02-28T07:45:17;16.93;;;8.50;;
15451;SDS011;7827;53.594;9.938;2023-02-28T07:47:46;16.60;;;9.27;;
15451;SDS011;7827;53.594;9.938;2023-02-28T07:50:15;18.30;;;8.60;;
15451;SDS011;7827;53.594;9.938;2023-02-28T07:52:44;13.10;;;8.60;;
15451;SDS011;7827;53.594;9.938;2023-02-28T07:55:12;16.10;;;7.90;;
15451;SDS011;7827;53.594;9.938;2023-02-28T07:57:42;18.40;;;7.63;;
15451;SDS011;7827;53.594;9.938;2023-02-28T08:00:13;13.77;;;8.17;;
15451;SDS011;7827;53.594;9.938;2023-02-28T08:02:42;20.03;;;8.43;;
15451;SDS011;7827;53.594;9.938;2023-02-28T08:05:10;17.03;;;7.67;;
15451;SDS011;7827;53.594;9.938;2023-02-28T08:07:39;14.97;;;8.40;;
15451;SDS011;7827;53.594;9.938;2023-02-28T08:10:07;13.47;;;7.47;;
15451;SDS011;7827;53.594;9.938;2023-02-28T08:12:37;16.23;;;7.83;;
15451;SDS011;7827;53.594;9.938;2023-02-28T08:15:05;16.50;;;8.23;;
15451;SDS011;7827;53.594;9.938;2023-02-28T08:17:37;16.73;;;6.90;;
15451;SDS011;7827;53.594;9.938;2023-02-28T08:20:06;13.17;;;6.20;;
15451;SDS011;7827;53.594;9.938;2023-02-28T08:22:36;17.43;;;6.60;;
15451;SDS011;7827;53.594;9.938;2023-02-28T08:25:05;15.50;;;5.70;;
15451;SDS011;7827;53.594;9.938;2023-02-28T08:27:34;8.43;;;4.67;;
15451;SDS011;7827;53.594;9.938;2023-02-28T08:30:03;11.00;;;4.83;;
15451;SDS011;7827;53.594;9.938;2023-02-28T08:32:33;5.50;;;4.20;;
15451;SDS011;7827;53.594;9.938;2023-02-28T08:35:03;6.10;;;3.90;;
15451;SDS011;7827;53.594;9.938;2023-02-28T08:37:32;7.47;;;4.57;;
15451;SDS011;7827;53.594;9.938;2023-02-28T08:40:00;5.13;;;3.30;;
15451;SDS011;7827;53.594;9.938;2023-02-28T08:42:30;9.23;;;3.10;;
15451;SDS011;7827;53.594;9.938;2023-02-28T08:45:00;4.73;;;3.30;;
15451;SDS011;7827;53.594;9.938;2023-02-28T08:47:29;7.90;;;3.13;;
15451;SDS011;7827;53.594;9.938;2023-02-28T08:49:57;6.47;;;2.80;;
15451;SDS011;7827;53.594;9.938;2023-02-28T08:52:27;8.43;;;2.43;;
15451;SDS011;7827;53.594;9.938;2023-02-28T08:54:55;4.77;;;2.40;;
15451;SDS011;7827;53.594;9.938;2023-02-28T08:57:23;4.60;;;2.37;;
15451;SDS011;7827;53.594;9.938;2023-02-28T08:59:53;5.93;;;2.23;;
15451;SDS011;7827;53.594;9.938;2023-02-28T09:02:21;9.97;;;2.77;;
15451;SDS011;7827;53.594;9.938;2023-02-28T09:04:50;7.07;;;2.70;;
15451;SDS011;7827;53.594;9.938;2023-02-28T09:07:18;2.90;;;2.03;;
15451;SDS011;7827;53.594;9.938;2023-02-28T09:09:48;4.37;;;2.60;;
15451;SDS011;7827;53.594;9.938;2023-02-28T09:12:22;2.73;;;2.10;;
15451;SDS011;7827;53.594;9.938;2023-02-28T09:14:52;5.23;;;1.80;;
15451;SDS011;7827;53.594;9.938;2023-02-28T09:17:21;3.77;;;2.67;;
15451;SDS011;7827;53.594;9.938;2023-02-28T09:19:56;3.27;;;1.90;;
15451;SDS011;7827;53.594;9.938;2023-02-28T09:22:25;2.70;;;1.90;;
15451;SDS011;7827;53.594;9.938;2023-02-28T09:24:54;2.47;;;1.70;;
15451;SDS011;7827;53.594;9.938;2023-02-28T09:27:23;2.50;;;1.93;;
15451;SDS011;7827;53.594;9.938;2023-02-28T09:29:51;2.07;;;1.70;;
15451;SDS011;7827;53.594;9.938;2023-02-28T09:32:19;2.53;;;1.83;;
15451;SDS011;7827;53.594;9.938;2023-02-28T09:34:47;2.33;;;1.80;;
15451;SDS011;7827;53.594;9.938;2023-02-28T09:37:16;4.40;;;1.70;;
15451;SDS011;7827;53.594;9.938;2023-02-28T09:39:44;3.27;;;2.03;;
15451;SDS011;7827;53.594;9.938;2023-02-28T09:42:17;3.47;;;1.73;;
15451;SDS011;7827;53.594;9.938;2023-02-28T09:44:58;2.73;;;1.70;;
15451;SDS011;7827;53.594;9.938;2023-02-28T09:47:34;3.03;;;1.93;;
15451;SDS011;7827;53.594;9.938;2023-02-28T09:50:11;2.47;;;2.00;;
15451;SDS011;7827;53.594;9.938;2023-02-28T09:52:56;2.20;;;1.80;;
15451;SDS011;7827;53.594;9.938;2023-02-28T09:55:27;4.80;;;2.50;;
15451;SDS011;7827;53.594;9.938;2023-02-28T09:58:13;2.73;;;1.97;;
15451;SDS011;7827;53.594;9.938;2023-02-28T10:01:00;3.10;;;1.90;;
15451;SDS011;7827;53.594;9.938;2023-02-28T10:03:39;3.50;;;2.13;;
15451;SDS011;7827;53.594;9.938;2023-02-28T10:06:13;3.37;;;1.93;;
15451;SDS011;7827;53.594;9.938;2023-02-28T10:08:49;3.63;;;2.00;;
15451;SDS011;7827;53.594;9.938;2023-02-28T10:11:28;2.43;;;2.17;;
15451;SDS011;7827;53.594;9.938;2023-02-28T10:14:02;2.70;;;2.30;;
15451;SDS011;7827;53.594;9.938;2023-02-28T10:16:41;4.20;;;2.53;;
15451;SDS011;7827;53.594;9.938;2023-02-28T10:19:19;3.93;;;2.40;;
15451;SDS011;7827;53.594;9.938;2023-02-28T10:21:55;6.50;;;2.43;;
15451;SDS011;7827;53.594;9.938;2023-02-28T10:24:28;3.73;;;2.17;;
15451;SDS011;7827;53.594;9.938;2023-02-28T10:27:06;4.73;;;2.23;;
15451;SDS011;7827;53.594;9.938;2023-02-28T10:29:45;2.47;;;2.10;;
15451;SDS011;7827;53.594;9.938;2023-02-28T10:32:17;4.13;;;2.00;;
15451;SDS011;7827;53.594;9.938;2023-02-28T10:34:50;2.63;;;2.20;;
15451;SDS011;7827;53.594;9.938;2023-02-28T10:37:22;3.13;;;2.40;;
15451;SDS011;7827;53.594;9.938;2023-02-28T10:39:51;7.20;;;2.57;;
15451;SDS011;7827;53.594;9.938;2023-02-28T10:42:21;5.20;;;2.17;;
15451;SDS011;7827;53.594;9.938;2023-02-28T10:47:50;4.17;;;2.10;;
15451;SDS011;7827;53.594;9.938;2023-02-28T10:50:28;3.23;;;2.33;;
15451;SDS011;7827;53.594;9.938;2023-02-28T10:53:10;3.93;;;2.00;;
15451;SDS011;7827;53.594;9.938;2023-02-28T10:55:56;11.67;;;2.60;;
15451;SDS011;7827;53.594;9.938;2023-02-28T10:58:28;3.73;;;2.30;;
15451;SDS011;7827;53.594;9.938;2023-02-28T11:01:00;2.93;;;2.20;;
15451;SDS011;7827;53.594;9.938;2023-02-28T11:03:29;4.63;;;2.20;;
15451;SDS011;7827;53.594;9.938;2023-02-28T11:06:04;5.53;;;2.50;;
15451;SDS011;7827;53.594;9.938;2023-02-28T11:08:42;4.20;;;2.40;;
15451;SDS011;7827;53.594;9.938;2023-02-28T11:11:18;7.10;;;2.20;;
15451;SDS011;7827;53.594;9.938;2023-02-28T11:13:51;3.03;;;2.23;;
15451;SDS011;7827;53.594;9.938;2023-02-28T11:16:33;4.83;;;2.20;;
15451;SDS011;7827;53.594;9.938;2023-02-28T11:19:05;6.63;;;2.57;;
15451;SDS011;7827;53.594;9.938;2023-02-28T11:21:48;3.40;;;2.10;;
15451;SDS011;7827;53.594;9.938;2023-02-28T11:24:24;4.60;;;2.30;;
15451;SDS011;7827;53.594;9.938;2023-02-28T11:26:57;3.03;;;2.13;;
15451;SDS011;7827;53.594;9.938;2023-02-28T11:29:26;3.20;;;2.40;;
15451;SDS011;7827;53.594;9.938;2023-02-28T11:32:02;3.23;;;2.00;;
15451;SDS011;7827;53.594;9.938;2023-02-28T11:34:44;3.17;;;1.97;;
15451;SDS011;7827;53.594;9.938;2023-02-28T11:37:14;2.13;;;1.93;;
15451;SDS011;7827;53.594;9.938;2023-02-28T11:39:46;3.00;;;2.03;;
15451;SDS011;7827;53.594;9.938;2023-02-28T11:45:22;6.10;;;2.37;;
15451;SDS011;7827;53.594;9.938;2023-02-28T11:48:16;2.57;;;1.90;;
15451;SDS011;7827;53.594;9.938;2023-02-28T11:50:53;2.80;;;1.77;;
15451;SDS011;7827;53.594;9.938;2023-02-28T11:53:38;4.07;;;2.10;;
15451;SDS011;7827;53.594;9.938;2023-02-28T11:56:22;3.20;;;2.10;;
15451;SDS011;7827;53.594;9.938;2023-02-28T11:59:06;3.77;;;2.43;;
15451;SDS011;7827;53.594;9.938;2023-02-28T12:02:04;3.43;;;2.10;;
15451;SDS011;7827;53.594;9.938;2023-02-28T12:04:59;5.60;;;2.77;;
15451;SDS011;7827;53.594;9.938;2023-02-28T12:07:47;6.17;;;2.10;;
15451;SDS011;7827;53.594;9.938;2023-02-28T12:10:32;4.83;;;2.37;;
15451;SDS011;7827;53.594;9.938;2023-02-28T12:13:15;4.50;;;2.33;;
15451;SDS011;7827;53.594;9.938;2023-02-28T12:15:52;4.53;;;2.27;;
15451;SDS011;7827;53.594;9.938;2023-02-28T12:18:52;3.97;;;2.23;;
15451;SDS011;7827;53.594;9.938;2023-02-28T12:21:37;2.60;;;2.20;;
15451;SDS011;7827;53.594;9.938;2023-02-28T12:24:39;2.93;;;2.23;;
15451;SDS011;7827;53.594;9.938;2023-02-28T12:27:54;2.67;;;2.10;;
15451;SDS011;7827;53.594;9.938;2023-02-28T12:30:24;4.27;;;2.27;;
15451;SDS011;7827;53.594;9.938;2023-02-28T12:32:56;2.83;;;2.40;;
15451;SDS011;7827;53.594;9.938;2023-02-28T12:35:32;3.17;;;2.43;;
15451;SDS011;7827;53.594;9.938;2023-02-28T12:38:08;5.03;;;2.60;;
15451;SDS011;7827;53.594;9.938;2023-02-28T12:40:44;6.60;;;3.03;;
15451;SDS011;7827;53.594;9.938;2023-02-28T12:43:18;6.63;;;2.80;;
15451;SDS011;7827;53.594;9.938;2023-02-28T12:45:50;6.60;;;2.40;;
15451;SDS011;7827;53.594;9.938;2023-02-28T12:48:25;5.27;;;2.63;;
15451;SDS011;7827;53.594;9.938;2023-02-28T12:51:04;3.93;;;2.50;;
15451;SDS011;7827;53.594;9.938;2023-02-28T12:53:38;5.23;;;2.37;;
15451;SDS011;7827;53.594;9.938;2023-02-28T12:56:27;5.83;;;2.40;;
15451;SDS011;7827;53.594;9.938;2023-02-28T12:59:10;4.13;;;2.47;;
15451;SDS011;7827;53.594;9.938;2023-02-28T13:02:00;3.63;;;2.43;;
15451;SDS011;7827;53.594;9.938;2023-02-28T13:04:56;7.20;;;2.90;;
15451;SDS011;7827;53.594;9.938;2023-02-28T13:08:00;3.90;;;2.60;;
15451;SDS011;7827;53.594;9.938;2023-02-28T13:10:50;4.17;;;2.53;;
15451;SDS011;7827;53.594;9.938;2023-02-28T13:13:22;7.00;;;2.87;;
15451;SDS011;7827;53.594;9.938;2023-02-28T13:16:00;6.90;;;2.80;;
15451;SDS011;7827;53.594;9.938;2023-02-28T13:18:33;4.20;;;3.10;;
15451;SDS011;7827;53.594;9.938;2023-02-28T13:21:06;6.50;;;4.10;;
15451;SDS011;7827;53.594;9.938;2023-02-28T13:23:37;6.83;;;3.37;;
15451;SDS011;7827;53.594;9.938;2023-02-28T13:29:54;6.90;;;2.87;;
15451;SDS011;7827;53.594;9.938;2023-02-28T13:32:29;5.70;;;3.13;;
15451;SDS011;7827;53.594;9.938;2023-02-28T13:35:14;5.00;;;2.77;;
15451;SDS011;7827;53.594;9.938;2023-02-28T13:44:17;3.63;;;2.77;;
15451;SDS011;7827;53.594;9.938;2023-02-28T13:50:15;4.45;;;2.85;;
15451;SDS011;7827;53.594;9.938;2023-02-28T13:56:23;4.87;;;3.40;;
15451;SDS011;7827;53.594;9.938;2023-02-28T13:59:06;5.97;;;3.13;;
15451;SDS011;7827;53.594;9.938;2023-02-28T14:01:58;7.93;;;3.50;;
15451;SDS011;7827;53.594;9.938;2023-02-28T14:05:04;3.90;;;2.93;;
15451;SDS011;7827;53.594;9.938;2023-02-28T14:07:37;8.93;;;2.90;;
15451;SDS011;7827;53.594;9.938;2023-02-28T14:10:21;4.78;;;2.85;;
15451;SDS011;7827;53.594;9.938;2023-02-28T14:12:55;6.33;;;2.60;;
15451;SDS011;7827;53.594;9.938;2023-02-28T14:15:38;3.53;;;2.63;;
15451;SDS011;7827;53.594;9.938;2023-02-28T14:18:25;8.17;;;3.40;;
15451;SDS011;7827;53.594;9.938;2023-02-28T14:21:01;7.63;;;3.47;;
15451;SDS011;7827;53.594;9.938;2023-02-28T14:23:45;7.50;;;3.07;;
15451;SDS011;7827;53.594;9.938;2023-02-28T14:26:57;6.77;;;3.20;;
15451;SDS011;7827;53.594;9.938;2023-02-28T14:29:45;5.87;;;3.33;;
15451;SDS011;7827;53.594;9.938;2023-02-28T14:32:49;4.93;;;3.43;;
15451;SDS011;7827;53.594;9.938;2023-02-28T14:35:43;4.77;;;3.20;;
15451;SDS011;7827;53.594;9.938;2023-02-28T14:38:27;6.00;;;3.20;;
15451;SDS011;7827;53.594;9.938;2023-02-28T14:41:00;4.03;;;3.20;;
15451;SDS011;7827;53.594;9.938;2023-02-28T14:43:47;6.80;;;3.30;;
15451;SDS011;7827;53.594;9.938;2023-02-28T14:46:19;4.93;;;3.53;;
15451;SDS011;7827;53.594;9.938;2023-02-28T14:48:49;4.27;;;3.17;;
15451;SDS011;7827;53.594;9.938;2023-02-28T14:51:19;4.00;;;3.30;;
15451;SDS011;7827;53.594;9.938;2023-02-28T14:53:52;6.10;;;2.93;;
15451;SDS011;7827;53.594;9.938;2023-02-28T14:56:27;6.30;;;3.60;;
15451;SDS011;7827;53.594;9.938;2023-02-28T14:59:03;8.63;;;3.65;;
15451;SDS011;7827;53.594;9.938;2023-02-28T15:01:32;5.23;;;3.03;;
15451;SDS011;7827;53.594;9.938;2023-02-28T15:04:02;4.77;;;3.40;;
15451;SDS011;7827;53.594;9.938;2023-02-28T15:06:34;4.37;;;3.30;;
15451;SDS011;7827;53.594;9.938;2023-02-28T15:09:07;5.80;;;3.60;;
15451;SDS011;7827;53.594;9.938;2023-02-28T15:11:38;6.17;;;3.13;;
15451;SDS011;7827;53.594;9.938;2023-02-28T15:14:12;4.53;;;3.00;;
15451;SDS011;7827;53.594;9.938;2023-02-28T15:16:47;5.07;;;3.20;;
15451;SDS011;7827;53.594;9.938;2023-02-28T15:19:22;6.70;;;3.50;;
15451;SDS011;7827;53.594;9.938;2023-02-28T15:21:57;7.10;;;3.07;;
15451;SDS011;7827;53.594;9.938;2023-02-28T15:24:32;5.60;;;3.43;;
15451;SDS011;7827;53.594;9.938;2023-02-28T15:27:06;7.30;;;3.30;;
15451;SDS011;7827;53.594;9.938;2023-02-28T15:29:44;4.97;;;3.40;;
15451;SDS011;7827;53.594;9.938;2023-02-28T15:32:23;6.00;;;3.60;;
15451;SDS011;7827;53.594;9.938;2023-02-28T15:34:56;7.37;;;3.80;;
15451;SDS011;7827;53.594;9.938;2023-02-28T15:37:29;7.07;;;3.10;;
15451;SDS011;7827;53.594;9.938;2023-02-28T15:40:12;5.33;;;3.27;;
15451;SDS011;7827;53.594;9.938;2023-02-28T15:42:57;4.20;;;3.23;;
15451;SDS011;7827;53.594;9.938;2023-02-28T15:45:35;8.57;;;3.73;;
15451;SDS011;7827;53.594;9.938;2023-02-28T15:48:13;8.43;;;4.00;;
15451;SDS011;7827;53.594;9.938;2023-02-28T15:50:48;7.27;;;3.47;;
15451;SDS011;7827;53.594;9.938;2023-02-28T15:53:22;6.40;;;3.60;;
15451;SDS011;7827;53.594;9.938;2023-02-28T15:55:56;8.17;;;3.40;;
15451;SDS011;7827;53.594;9.938;2023-02-28T15:58:28;7.10;;;3.00;;
15451;SDS011;7827;53.594;9.938;2023-02-28T16:01:06;6.43;;;3.30;;
15451;SDS011;7827;53.594;9.938;2023-02-28T16:03:50;6.63;;;3.70;;
15451;SDS011;7827;53.594;9.938;2023-02-28T16:06:24;5.93;;;3.57;;
15451;SDS011;7827;53.594;9.938;2023-02-28T16:09:08;7.80;;;3.60;;